createdAt,value
2018-09-25T00:00:57.588Z,56.22
2018-09-25T00:15:55.630Z,55.60
2018-09-25T00:30:56.687Z,55.42
2018-09-25T00:45:56.928Z,55.26
2018-09-25T01:00:55.832Z,55.64
2018-09-25T01:15:56.069Z,55.22
2018-09-25T01:30:57.924Z,55.99
2018-09-25T01:45:58.033Z,56.22
2018-09-25T02:01:00.231Z,56.21
2018-09-25T02:15:56.384Z,55.47
2018-09-25T02:30:56.454Z,55.85
2018-09-25T02:45:56.260Z,56.12
2018-09-25T03:00:56.402Z,58.65
2018-09-25T03:15:55.424Z,55.51
2018-09-25T03:30:55.298Z,56.07
2018-09-25T03:45:55.386Z,56.09
2018-09-25T04:00:56.028Z,55.25
2018-09-25T04:15:55.850Z,54.96
2018-09-25T04:30:55.715Z,53.61
2018-09-25T04:45:55.682Z,53.70
2018-09-25T05:00:57.597Z,53.27
2018-09-25T05:15:56.005Z,51.34
2018-09-25T05:45:56.445Z,46.01
2018-09-25T06:00:55.528Z,42.60
2018-09-25T06:15:55.535Z,38.93
2018-09-25T06:30:56.532Z,37.27
2018-09-25T06:46:00.548Z,37.23
2018-09-25T07:45:55.506Z,33.31
2018-09-25T08:00:58.182Z,31.62
2018-09-25T08:15:56.006Z,30.85
2018-09-25T08:30:56.655Z,28.65
2018-09-25T08:45:57.922Z,27.30
2018-09-25T09:00:58.552Z,26.14
2018-09-25T09:15:56.449Z,25.90
2018-09-25T09:30:56.590Z,24.97
2018-09-25T09:45:56.425Z,30.70
2018-09-25T10:00:55.860Z,28.95
2018-09-25T10:15:58.038Z,22.87
2018-09-25T10:30:55.950Z,22.90
2018-09-25T11:00:56.141Z,24.14
2018-09-25T11:30:56.108Z,25.38
2018-09-25T12:00:56.282Z,25.53
2018-09-25T12:15:56.272Z,26.34
2018-09-25T13:00:55.641Z,26.53
2018-09-25T13:15:57.839Z,26.93
2018-09-25T13:30:58.889Z,27.83
2018-09-25T15:00:56.348Z,30.12
2018-09-25T15:15:56.348Z,30.87
2018-09-25T15:30:56.431Z,31.59
2018-09-25T16:15:55.718Z,33.07
2018-09-25T16:30:56.973Z,32.35
2018-09-25T16:45:55.619Z,33.87
2018-09-25T17:00:57.422Z,34.59
2018-09-25T17:15:56.962Z,34.53
2018-09-25T17:30:56.018Z,35.69
2018-09-25T17:45:57.930Z,35.93
2018-09-25T18:00:58.209Z,36.07
2018-09-25T18:15:56.267Z,35.32
2018-09-25T18:30:56.105Z,35.46
2018-09-25T18:45:56.140Z,35.47
2018-09-25T19:00:55.394Z,35.54
2018-09-25T19:15:57.611Z,36.07
2018-09-25T19:30:56.628Z,35.72
2018-09-25T19:45:56.221Z,35.56
2018-09-25T20:00:55.644Z,36.35
2018-09-25T20:15:55.919Z,36.32
2018-09-25T20:30:55.515Z,36.98
2018-09-25T20:45:55.730Z,38.02
2018-09-25T21:00:55.608Z,37.89
2018-09-25T21:15:58.072Z,38.17
2018-09-25T21:30:55.945Z,39.11
2018-09-25T21:45:57.331Z,39.43
2018-09-25T22:00:56.901Z,40.23
2018-09-25T22:15:56.741Z,41.67
2018-09-25T22:30:58.225Z,42.13
2018-09-25T22:45:56.248Z,42.63
2018-09-25T23:00:55.487Z,42.90
2018-09-25T23:15:57.545Z,44.24
2018-09-25T23:30:58.491Z,45.49
2018-09-25T23:45:56.375Z,45.54
